Time;durP1;ratioP1;P1;durP2;ratioP2;P2;SDS_P1;SDS_P2;PMS_P1;PMS_P2;Temp;Humidity;BMP_temperature;BMP_pressure;BME280_temperature;BME280_humidity;BME280_pressure;Samples;Min_cycle;Max_cycle;Signal;HPM_P1;HPM_P2
2022/06/25 00:00:48;;;;;;;5.45;1.70;;;23.80;48.10;;;;;;4975227;23;20066;-62
2022/06/25 00:02:50;;;;;;;4.68;1.90;;;23.50;47.70;;;;;;4993969;23;20033;-61
2022/06/25 00:07:13;;;;;;;2.17;1.48;;;22.90;47.50;;;;;;4994136;23;20447;-69
2022/06/25 00:09:16;;;;;;;3.78;1.70;;;22.60;47.90;;;;;;4992959;23;20086;-67
2022/06/25 00:13:40;;;;;;;4.40;1.88;;;22.10;48.40;;;;;;4992786;23;20418;-68
2022/06/25 00:15:42;;;;;;;2.70;1.65;;;21.90;48.60;;;;;;4998491;23;20053;-68
2022/06/25 00:17:44;;;;;;;2.70;1.50;;;21.70;48.80;;;;;;4994456;23;20349;-68
2022/06/25 00:19:47;;;;;;;3.05;1.83;;;21.60;48.90;;;;;;4993381;23;20392;-68
2022/06/25 00:21:50;;;;;;;3.95;1.80;;;21.50;49.10;;;;;;4974576;23;20074;-71
2022/06/25 00:23:52;;;;;;;3.38;2.05;;;21.40;49.40;;;;;;4948767;23;20839;-70
2022/06/25 00:25:55;;;;;;;2.87;1.43;;;21.30;49.40;;;;;;4993535;23;20390;-69
2022/06/25 00:27:57;;;;;;;5.35;1.88;;;21.10;49.50;;;;;;4997669;23;20488;-69
2022/06/25 00:29:59;;;;;;;3.30;1.60;;;21.00;49.60;;;;;;5000913;23;20038;-70
2022/06/25 00:32:03;;;;;;;2.17;1.58;;;21.00;49.70;;;;;;4970782;23;20556;-68
2022/06/25 00:34:06;;;;;;;2.70;1.80;;;20.90;49.80;;;;;;4967158;23;20035;-70
2022/06/25 00:36:08;;;;;;;3.15;1.85;;;20.80;50.00;;;;;;4975219;23;20134;-67
2022/06/25 00:38:10;;;;;;;2.67;1.60;;;20.70;50.10;;;;;;4945216;23;20037;-69
2022/06/25 00:40:13;;;;;;;2.50;1.90;;;20.60;50.30;;;;;;4993298;23;20690;-70
2022/06/25 00:42:16;;;;;;;2.33;1.60;;;20.50;50.40;;;;;;4997034;23;20031;-68
2022/06/25 00:44:18;;;;;;;4.07;1.67;;;20.40;50.50;;;;;;4976166;23;20035;-69
2022/06/25 00:46:21;;;;;;;4.53;1.65;;;20.30;50.70;;;;;;4994227;23;20038;-69
2022/06/25 00:48:23;;;;;;;2.65;1.40;;;20.20;50.80;;;;;;4993328;23;20426;-69
2022/06/25 00:50:26;;;;;;;2.95;1.70;;;20.20;51.00;;;;;;4950163;23;20840;-68
2022/06/25 00:52:32;;;;;;;4.85;1.52;;;20.10;51.10;;;;;;4970883;23;20433;-67
2022/06/25 00:54:38;;;;;;;2.60;1.67;;;20.00;51.10;;;;;;4967808;23;20581;-70
2022/06/25 00:56:47;;;;;;;2.60;1.90;;;19.90;51.30;;;;;;4992922;23;20567;-70
2022/06/25 00:58:53;;;;;;;2.20;1.48;;;19.80;51.40;;;;;;4969942;23;20035;-69
2022/06/25 01:00:55;;;;;;;1.60;1.30;;;19.80;51.50;;;;;;4999321;23;20089;-69
2022/06/25 01:02:57;;;;;;;2.97;1.80;;;19.70;51.70;;;;;;4971012;23;20361;-69
2022/06/25 01:05:00;;;;;;;2.53;1.48;;;19.70;51.80;;;;;;4994252;23;20464;-72
2022/06/25 01:07:02;;;;;;;3.72;1.70;;;19.60;51.90;;;;;;4996641;23;20036;-70
2022/06/25 01:09:04;;;;;;;1.55;1.40;;;19.50;52.00;;;;;;4998979;23;20055;-70
2022/06/25 01:11:07;;;;;;;2.05;1.33;;;19.50;52.10;;;;;;4970650;23;20035;-72
2022/06/25 01:13:09;;;;;;;;;;;19.40;52.20;;;;;;4992687;23;20057;-68
2022/06/25 01:15:17;;;;;;;2.22;1.60;;;19.40;52.40;;;;;;5000965;23;19945;-67
2022/06/25 01:17:19;;;;;;;2.22;1.63;;;19.30;52.30;;;;;;4998708;23;20608;-68
2022/06/25 01:19:21;;;;;;;2.63;1.63;;;19.20;52.50;;;;;;4993863;23;20567;-67
2022/06/25 01:21:23;;;;;;;2.70;1.60;;;19.20;52.60;;;;;;4970065;23;20035;-67
2022/06/25 01:23:26;;;;;;;2.25;1.40;;;19.20;52.70;;;;;;5000267;23;20480;-69
2022/06/25 01:25:35;;;;;;;3.22;1.70;;;19.10;52.80;;;;;;4993854;23;20477;-68
2022/06/25 01:27:38;;;;;;;1.95;1.50;;;19.00;52.80;;;;;;4960621;23;20459;-69
2022/06/25 01:29:41;;;;;;;2.53;1.45;;;19.00;52.90;;;;;;4991672;23;20031;-67
2022/06/25 01:31:43;;;;;;;2.72;1.65;;;19.00;53.00;;;;;;4997389;23;20042;-70
2022/06/25 01:33:45;;;;;;;2.33;1.60;;;19.00;53.10;;;;;;4994883;23;20560;-70
2022/06/25 01:35:48;;;;;;;5.10;2.17;;;18.90;53.20;;;;;;4990964;23;20339;-68
2022/06/25 01:37:50;;;;;;;2.20;1.60;;;18.80;53.20;;;;;;4970408;23;20356;-69
2022/06/25 01:39:54;;;;;;;2.60;1.60;;;18.80;53.40;;;;;;4996363;23;20163;-69
2022/06/25 01:41:57;;;;;;;2.33;1.70;;;18.80;53.40;;;;;;4991398;23;20018;-69
2022/06/25 01:43:59;;;;;;;2.20;1.80;;;18.70;53.50;;;;;;4993373;23;20113;-68
2022/06/25 01:46:01;;;;;;;2.35;1.75;;;18.70;53.70;;;;;;4997524;23;20232;-70
2022/06/25 01:48:06;;;;;;;3.45;1.60;;;18.70;53.80;;;;;;4995150;23;20262;-70
2022/06/25 01:50:09;;;;;;;3.22;1.70;;;18.60;53.80;;;;;;4993834;23;20069;-70
2022/06/25 01:52:14;;;;;;;2.53;1.80;;;18.60;53.80;;;;;;4996292;23;20038;-70
2022/06/25 01:54:17;;;;;;;3.10;1.45;;;18.60;54.00;;;;;;4999467;23;20197;-68
2022/06/25 01:56:19;;;;;;;3.15;1.50;;;18.50;54.00;;;;;;4964595;23;20091;-69
2022/06/25 01:58:22;;;;;;;2.50;1.75;;;18.50;54.10;;;;;;4991261;23;20079;-72
2022/06/25 02:00:27;;;;;;;2.45;1.67;;;18.50;54.20;;;;;;4997241;23;20030;-69
2022/06/25 02:02:29;;;;;;;2.70;1.90;;;18.50;54.20;;;;;;4999343;23;20448;-70
2022/06/25 02:04:32;;;;;;;3.75;1.90;;;18.40;54.30;;;;;;4994697;23;20784;-70
2022/06/25 02:06:34;;;;;;;3.20;1.52;;;18.40;54.40;;;;;;4966144;23;20031;-70
2022/06/25 02:08:38;;;;;;;4.22;1.92;;;18.40;54.50;;;;;;4995783;23;20031;-70
2022/06/25 02:10:41;;;;;;;2.20;1.63;;;18.40;54.60;;;;;;4961076;23;20062;-71
2022/06/25 02:12:43;;;;;;;5.65;2.22;;;18.30;54.60;;;;;;4963754;23;20070;-68
2022/06/25 02:14:45;;;;;;;2.80;1.80;;;18.30;54.70;;;;;;4987703;23;20063;-70
2022/06/25 02:16:47;;;;;;;2.92;1.60;;;18.30;54.90;;;;;;4990524;23;20506;-71
2022/06/25 02:18:49;;;;;;;3.05;1.63;;;18.20;54.90;;;;;;4988760;23;20030;-70
2022/06/25 02:20:52;;;;;;;1.67;1.48;;;18.20;55.00;;;;;;4981071;23;20579;-69
2022/06/25 02:22:54;;;;;;;3.10;1.60;;;18.20;55.10;;;;;;4994763;23;20548;-69
2022/06/25 02:24:56;;;;;;;2.00;1.40;;;18.20;55.10;;;;;;4990023;23;20556;-70
2022/06/25 02:26:59;;;;;;;1.67;1.40;;;18.20;55.10;;;;;;4990613;23;20068;-68
2022/06/25 02:29:01;;;;;;;2.65;1.40;;;18.20;55.20;;;;;;4971569;23;20026;-67
2022/06/25 02:31:04;;;;;;;2.08;1.48;;;18.10;55.20;;;;;;4994476;23;20238;-69
2022/06/25 02:33:13;;;;;;;2.97;1.75;;;18.10;55.20;;;;;;4992420;23;20042;-69
2022/06/25 02:35:15;;;;;;;2.35;1.70;;;18.10;55.20;;;;;;4968391;23;20667;-70
2022/06/25 02:37:17;;;;;;;2.47;1.60;;;18.10;55.30;;;;;;4973658;23;20054;-70
2022/06/25 02:39:19;;;;;;;1.83;1.60;;;18.10;55.40;;;;;;4966755;23;20938;-69
2022/06/25 02:41:22;;;;;;;2.00;1.60;;;18.10;55.40;;;;;;4992423;23;21024;-69
2022/06/25 02:43:24;;;;;;;2.17;1.40;;;18.10;55.50;;;;;;4997239;23;20154;-69
2022/06/25 02:45:26;;;;;;;1.75;1.50;;;18.00;55.50;;;;;;4998773;23;20073;-69
2022/06/25 02:47:29;;;;;;;2.47;1.50;;;18.10;55.60;;;;;;4960121;23;20042;-70
2022/06/25 02:49:31;;;;;;;2.63;1.73;;;18.00;55.50;;;;;;4992276;23;20358;-69
2022/06/25 02:51:33;;;;;;;3.25;1.73;;;18.00;55.60;;;;;;4994134;23;20516;-71
2022/06/25 02:53:35;;;;;;;2.95;2.22;;;18.00;55.70;;;;;;4989773;23;20421;-71
2022/06/25 03:00:19;;;;;;;4.40;2.45;;;18.00;55.90;;;;;;4972418;23;20133;-70
2022/06/25 03:02:21;;;;;;;5.28;3.50;;;18.00;55.90;;;;;;4993288;23;20030;-71
2022/06/25 03:04:24;;;;;;;6.32;4.05;;;18.00;56.00;;;;;;4994323;23;20037;-71
2022/06/25 03:06:26;;;;;;;6.05;4.05;;;18.00;56.70;;;;;;4971998;23;20034;-71
2022/06/25 03:08:29;;;;;;;10.55;5.35;;;18.00;56.30;;;;;;4991881;23;20761;-68
2022/06/25 03:10:31;;;;;;;6.90;4.40;;;18.00;56.30;;;;;;4991753;23;20030;-71
2022/06/25 03:12:33;;;;;;;7.22;4.13;;;18.00;56.40;;;;;;4998458;23;20141;-70
2022/06/25 03:14:36;;;;;;;7.05;4.75;;;18.00;56.40;;;;;;4997998;23;21028;-70
2022/06/25 03:16:38;;;;;;;7.57;5.75;;;18.00;56.30;;;;;;4967063;23;20110;-70
2022/06/25 03:18:40;;;;;;;8.45;5.45;;;18.00;56.50;;;;;;4994811;23;20061;-69
2022/06/25 03:20:43;;;;;;;10.18;6.20;;;18.00;56.50;;;;;;5000421;23;20562;-67
2022/06/25 03:22:45;;;;;;;6.25;5.20;;;18.00;56.50;;;;;;4965156;23;20031;-71
2022/06/25 03:24:47;;;;;;;8.82;5.47;;;18.00;56.50;;;;;;4995656;23;20412;-66
2022/06/25 03:26:50;;;;;;;8.77;5.47;;;18.10;56.70;;;;;;4999725;23;20038;-70
2022/06/25 03:28:52;;;;;;;7.32;5.25;;;18.10;56.50;;;;;;4980587;23;20089;-72
2022/06/25 03:30:55;;;;;;;7.57;5.05;;;18.10;56.60;;;;;;4987707;23;20149;-73
2022/06/25 03:32:57;;;;;;;8.07;5.57;;;18.10;56.50;;;;;;5020443;23;20019;-69
2022/06/25 03:34:59;;;;;;;9.32;4.70;;;18.20;56.50;;;;;;5004017;23;20184;-69
2022/06/25 03:37:01;;;;;;;7.20;4.88;;;18.20;56.60;;;;;;4977407;23;20027;-70
2022/06/25 03:39:05;;;;;;;8.88;5.45;;;18.20;56.50;;;;;;5002696;23;20030;-72
2022/06/25 03:43:28;;;;;;;8.77;5.78;;;18.30;56.70;;;;;;4991480;23;20050;-70
2022/06/25 03:45:30;;;;;;;7.45;5.28;;;18.30;56.70;;;;;;4970372;23;20026;-70
2022/06/25 03:47:32;;;;;;;7.15;5.28;;;18.30;56.70;;;;;;4996426;23;20034;-69
2022/06/25 03:49:34;;;;;;;9.55;5.47;;;18.30;56.60;;;;;;4993243;23;20432;-70
2022/06/25 03:51:37;;;;;;;7.57;5.25;;;18.30;57.30;;;;;;4998451;23;20042;-73
2022/06/25 03:53:39;;;;;;;7.05;4.70;;;18.40;56.80;;;;;;4992115;23;20568;-72
2022/06/25 03:55:41;;;;;;;6.00;4.90;;;18.40;57.40;;;;;;4944690;23;20038;-72
2022/06/25 03:57:44;;;;;;;7.20;4.82;;;18.40;56.80;;;;;;4988453;23;20093;-74
2022/06/25 03:59:46;;;;;;;10.13;4.83;;;18.40;56.80;;;;;;4987439;23;20352;-73
2022/06/25 04:01:49;;;;;;;7.22;5.05;;;18.50;56.70;;;;;;4988770;23;20100;-70
2022/06/25 04:03:51;;;;;;;7.18;4.97;;;18.50;56.70;;;;;;4985582;23;20031;-70
2022/06/25 04:05:54;;;;;;;7.78;4.75;;;18.50;56.70;;;;;;4994989;23;20092;-73
2022/06/25 04:07:56;;;;;;;6.97;4.25;;;18.50;56.70;;;;;;4989606;23;20448;-72
2022/06/25 04:09:58;;;;;;;6.20;4.45;;;18.50;56.70;;;;;;4958004;23;20667;-71
2022/06/25 04:12:00;;;;;;;6.30;4.13;;;18.50;56.70;;;;;;4968613;23;20625;-70
2022/06/25 04:14:03;;;;;;;6.18;4.38;;;18.50;56.60;;;;;;4996064;23;20506;-73
2022/06/25 04:16:05;;;;;;;5.88;4.15;;;18.50;56.60;;;;;;4987272;23;20133;-73
2022/06/25 04:18:08;;;;;;;7.50;4.50;;;18.50;56.70;;;;;;4992350;23;20583;-71
2022/06/25 04:20:11;;;;;;;7.32;4.20;;;18.50;56.80;;;;;;4998795;23;20030;-71
2022/06/25 04:22:13;;;;;;;6.78;4.10;;;18.60;56.80;;;;;;4990271;23;20101;-68
2022/06/25 04:24:15;;;;;;;6.30;4.03;;;18.60;56.80;;;;;;4985229;23;20404;-71
2022/06/25 04:26:18;;;;;;;6.70;4.10;;;18.70;56.70;;;;;;5000174;23;20501;-72
2022/06/25 04:30:40;;;;;;;6.72;4.28;;;18.70;56.50;;;;;;4995487;23;20034;-74
2022/06/25 04:32:43;;;;;;;6.43;4.10;;;18.80;56.60;;;;;;4966169;23;20038;-70
2022/06/25 04:34:45;;;;;;;6.80;3.83;;;18.90;56.60;;;;;;4988546;23;20492;-69
2022/06/25 04:36:47;;;;;;;6.53;3.70;;;18.90;56.70;;;;;;4972495;23;20035;-71
2022/06/25 04:38:50;;;;;;;5.15;3.30;;;19.00;56.80;;;;;;4969418;23;20192;-70
2022/06/25 04:40:52;;;;;;;6.07;3.30;;;19.00;57.00;;;;;;4963440;23;20042;-70
2022/06/25 04:42:55;;;;;;;5.55;3.33;;;19.00;56.90;;;;;;4994702;23;20030;-68
2022/06/25 04:44:57;;;;;;;5.55;3.38;;;19.10;56.90;;;;;;4998480;23;20027;-70
2022/06/25 04:46:59;;;;;;;5.38;3.70;;;19.10;56.80;;;;;;4968183;23;20034;-69
2022/06/25 04:49:01;;;;;;;5.53;3.55;;;19.20;56.70;;;;;;4946134;23;20037;-72
2022/06/25 04:51:04;;;;;;;5.70;3.22;;;19.20;56.50;;;;;;4999883;23;20062;-73
2022/06/25 04:53:06;;;;;;;5.38;3.40;;;19.30;56.50;;;;;;4966035;23;20224;-70
2022/06/25 04:55:09;;;;;;;4.53;3.13;;;19.30;56.40;;;;;;4990718;23;20594;-69
2022/06/25 04:57:11;;;;;;;4.85;2.92;;;19.40;56.40;;;;;;4970268;23;20035;-68
2022/06/25 04:59:16;;;;;;;5.50;3.30;;;19.40;56.30;;;;;;4970915;23;20416;-70
2022/06/25 05:01:19;;;;;;;5.00;3.20;;;19.40;56.20;;;;;;4993507;23;20066;-69
2022/06/25 05:03:21;;;;;;;4.70;3.08;;;19.50;56.20;;;;;;4992821;23;20030;-70
2022/06/25 05:05:23;;;;;;;4.00;3.05;;;19.50;56.10;;;;;;4999330;23;20058;-71
2022/06/25 05:07:26;;;;;;;4.88;3.13;;;19.60;56.10;;;;;;4994956;23;20165;-72
2022/06/25 05:09:28;;;;;;;4.90;2.83;;;19.60;56.20;;;;;;4990113;23;20161;-70
2022/06/25 05:11:30;;;;;;;5.72;3.03;;;19.60;56.80;;;;;;4995559;23;20054;-69
2022/06/25 05:13:32;;;;;;;4.43;2.83;;;19.60;56.10;;;;;;4968751;23;20480;-69
2022/06/25 05:15:35;;;;;;;4.18;2.75;;;19.60;56.00;;;;;;4994335;23;20042;-70
2022/06/25 05:17:38;;;;;;;5.00;3.72;;;19.50;56.10;;;;;;4993359;23;20026;-69
2022/06/25 05:19:40;;;;;;;6.20;4.32;;;19.50;56.20;;;;;;4998232;23;20145;-70
2022/06/25 05:21:42;;;;;;;4.97;3.95;;;19.50;56.40;;;;;;4992311;23;20027;-73
2022/06/25 05:23:45;;;;;;;5.95;4.85;;;19.50;56.40;;;;;;4994142;23;20034;-70
2022/06/25 05:25:48;;;;;;;6.40;5.10;;;19.50;56.40;;;;;;4998366;23;20345;-68
2022/06/25 05:27:50;;;;;;;7.18;4.90;;;19.50;56.40;;;;;;4996791;23;20642;-72
2022/06/25 05:29:52;;;;;;;6.57;5.20;;;19.40;56.40;;;;;;4993866;23;20113;-71
2022/06/25 05:31:54;;;;;;;7.47;5.43;;;19.40;56.50;;;;;;4969375;23;20037;-71
2022/06/25 05:33:56;;;;;;;8.75;5.53;;;19.40;56.50;;;;;;5000673;23;20379;-69
2022/06/25 05:35:59;;;;;;;7.85;5.97;;;19.40;56.60;;;;;;4991454;23;20415;-71
2022/06/25 05:38:01;;;;;;;7.85;7.00;;;19.30;56.60;;;;;;4994992;23;20358;-69
2022/06/25 05:40:03;;;;;;;8.52;6.88;;;19.30;56.80;;;;;;4997388;23;20063;-70
2022/06/25 05:42:06;;;;;;;7.97;6.70;;;19.30;56.80;;;;;;4968719;23;20027;-71
2022/06/25 05:44:08;;;;;;;8.90;7.10;;;19.30;56.80;;;;;;4994625;23;20062;-72
2022/06/25 05:46:10;;;;;;;8.32;7.00;;;19.20;56.80;;;;;;4999670;23;20034;-71
2022/06/25 05:48:12;;;;;;;7.65;6.85;;;19.20;56.80;;;;;;4995723;23;20441;-72
2022/06/25 05:50:15;;;;;;;8.48;7.68;;;19.20;56.90;;;;;;4992738;23;20026;-70
2022/06/25 05:52:17;;;;;;;8.73;7.78;;;19.20;57.00;;;;;;4992084;23;20034;-69
2022/06/25 05:54:20;;;;;;;9.43;7.75;;;19.20;57.20;;;;;;4951688;23;20038;-71
2022/06/25 05:56:22;;;;;;;8.75;7.85;;;19.20;57.20;;;;;;4993557;23;20451;-71
2022/06/25 05:58:24;;;;;;;9.93;7.85;;;19.10;57.30;;;;;;4970131;23;20501;-71
2022/06/25 06:00:26;;;;;;;9.68;8.23;;;19.10;57.40;;;;;;4998338;23;20026;-71
2022/06/25 06:02:29;;;;;;;9.18;8.13;;;19.10;57.40;;;;;;4991937;23;20290;-70
2022/06/25 06:04:34;;;;;;;8.35;7.55;;;19.10;57.40;;;;;;4994754;23;20471;-69
2022/06/25 06:06:36;;;;;;;8.93;8.02;;;19.10;57.50;;;;;;4997009;23;20048;-69
2022/06/25 06:08:38;;;;;;;10.25;8.50;;;19.10;57.60;;;;;;5000130;23;20038;-69
2022/06/25 06:10:41;;;;;;;9.13;7.85;;;19.10;57.70;;;;;;4992692;23;20713;-71
2022/06/25 06:12:43;;;;;;;11.20;8.18;;;19.10;57.80;;;;;;4989245;23;20023;-70
2022/06/25 06:14:49;;;;;;;10.02;9.00;;;19.00;57.60;;;;;;4998335;23;20034;-70
2022/06/25 06:16:51;;;;;;;10.02;9.02;;;19.10;57.80;;;;;;4964217;23;20406;-69
2022/06/25 06:18:53;;;;;;;9.65;8.65;;;19.10;57.80;;;;;;4989878;23;20086;-70
2022/06/25 06:20:56;;;;;;;10.90;8.60;;;19.10;57.80;;;;;;4990140;23;20045;-69
2022/06/25 06:22:58;;;;;;;9.65;8.65;;;19.00;57.80;;;;;;4968039;23;20031;-69
2022/06/25 06:25:00;;;;;;;9.25;8.20;;;19.10;57.80;;;;;;4987933;23;20034;-68
2022/06/25 06:27:03;;;;;;;11.30;9.80;;;19.00;57.90;;;;;;4962214;23;20030;-68
2022/06/25 06:29:05;;;;;;;10.15;9.07;;;19.00;58.00;;;;;;4993132;23;20354;-68
2022/06/25 06:31:08;;;;;;;10.53;9.43;;;19.00;58.10;;;;;;4988936;23;20037;-68
2022/06/25 06:33:10;;;;;;;9.60;8.60;;;19.00;58.30;;;;;;4989202;23;20058;-68
2022/06/25 06:35:12;;;;;;;9.40;8.43;;;19.00;58.20;;;;;;4991328;23;20034;-68
2022/06/25 06:37:14;;;;;;;9.73;8.73;;;19.00;58.40;;;;;;4991824;23;20030;-68
2022/06/25 06:39:17;;;;;;;10.07;8.10;;;19.00;58.10;;;;;;4988518;23;20130;-68
2022/06/25 06:41:19;;;;;;;8.80;7.15;;;19.00;58.10;;;;;;4988285;23;20038;-69
2022/06/25 06:43:21;;;;;;;8.80;7.93;;;19.00;58.20;;;;;;4993373;23;20074;-68
2022/06/25 06:45:24;;;;;;;9.35;8.30;;;18.90;58.20;;;;;;4964823;23;20384;-68
2022/06/25 06:47:26;;;;;;;8.95;8.05;;;18.90;58.30;;;;;;4993088;23;20033;-68
2022/06/25 06:49:28;;;;;;;8.73;7.82;;;18.90;58.30;;;;;;4996772;23;20547;-68
2022/06/25 06:51:31;;;;;;;8.18;7.28;;;18.90;58.40;;;;;;4995791;23;20774;-68
2022/06/25 06:53:34;;;;;;;9.48;7.82;;;18.90;58.40;;;;;;4960421;23;20027;-70
2022/06/25 06:55:36;;;;;;;8.90;7.53;;;18.90;58.50;;;;;;4996490;23;20436;-68
2022/06/25 06:57:38;;;;;;;8.40;7.53;;;18.90;58.60;;;;;;4972130;23;20115;-68
2022/06/25 06:59:41;;;;;;;7.72;6.93;;;18.90;58.70;;;;;;4995586;23;20561;-68
2022/06/25 07:01:43;;;;;;;8.15;7.35;;;18.90;58.80;;;;;;4963831;23;20540;-68
2022/06/25 07:03:45;;;;;;;8.43;6.82;;;18.90;58.80;;;;;;4970990;23;20556;-68
2022/06/25 07:05:48;;;;;;;9.35;6.80;;;18.80;58.90;;;;;;4968130;23;20026;-68
2022/06/25 07:07:50;;;;;;;9.23;7.00;;;18.80;59.10;;;;;;4965946;23;20620;-67
2022/06/25 07:09:52;;;;;;;8.50;6.80;;;18.80;59.10;;;;;;4972822;23;20075;-68
2022/06/25 07:11:54;;;;;;;10.57;7.20;;;18.80;59.20;;;;;;4994313;23;20225;-67
2022/06/25 07:14:01;;;;;;;10.45;7.30;;;18.80;59.10;;;;;;4991617;23;20030;-68
2022/06/25 07:16:04;;;;;;;7.90;6.57;;;18.80;59.20;;;;;;4994478;23;20797;-68
2022/06/25 07:18:07;;;;;;;9.10;6.77;;;18.70;59.40;;;;;;4973851;23;20034;-68
2022/06/25 07:20:10;;;;;;;8.05;6.75;;;18.80;59.40;;;;;;4997373;23;20249;-68
2022/06/25 07:22:12;;;;;;;8.00;5.95;;;18.80;59.40;;;;;;4967657;23;20082;-68
2022/06/25 07:24:15;;;;;;;8.40;6.60;;;18.80;59.40;;;;;;4997676;23;20245;-68
2022/06/25 07:26:18;;;;;;;8.97;7.00;;;18.80;59.50;;;;;;4996414;23;20030;-68
2022/06/25 07:28:21;;;;;;;7.57;6.63;;;18.70;59.50;;;;;;4995629;23;20030;-68
2022/06/25 07:30:25;;;;;;;7.72;6.65;;;18.70;59.50;;;;;;4967050;23;20410;-68
2022/06/25 07:32:27;;;;;;;9.85;6.68;;;18.70;59.60;;;;;;5000455;23;20296;-67
2022/06/25 07:34:29;;;;;;;7.47;6.03;;;18.70;59.60;;;;;;4991243;23;20033;-68
2022/06/25 07:36:32;;;;;;;11.48;6.95;;;18.70;59.60;;;;;;4990533;23;20026;-68
2022/06/25 07:38:34;;;;;;;7.60;6.13;;;18.70;59.80;;;;;;4996066;23;20361;-68
2022/06/25 07:40:36;;;;;;;9.18;6.25;;;18.70;59.80;;;;;;4994534;23;20137;-68
2022/06/25 07:42:38;;;;;;;9.30;6.55;;;18.60;59.80;;;;;;4995418;23;20085;-68
2022/06/25 07:44:41;;;;;;;7.05;5.70;;;18.60;59.90;;;;;;4988324;23;20093;-68
2022/06/25 07:46:43;;;;;;;8.88;6.45;;;18.60;59.90;;;;;;4997598;23;20572;-67
2022/06/25 07:48:45;;;;;;;6.93;5.47;;;18.60;60.00;;;;;;4993760;23;20193;-68
2022/06/25 07:53:08;;;;;;;7.68;5.57;;;18.60;60.00;;;;;;4993966;23;20296;-68
2022/06/25 07:55:10;;;;;;;8.15;5.60;;;18.60;60.10;;;;;;4972134;23;20038;-68
2022/06/25 07:57:13;;;;;;;8.23;5.43;;;18.60;60.00;;;;;;5013542;23;20034;-68
2022/06/25 07:59:15;;;;;;;8.40;5.90;;;18.50;60.00;;;;;;5001769;23;20026;-62
2022/06/25 08:01:17;;;;;;;6.68;5.72;;;18.50;60.10;;;;;;4974679;23;20134;-62
2022/06/25 08:03:20;;;;;;;7.03;5.50;;;18.50;60.20;;;;;;4989999;23;20045;-63
2022/06/25 08:05:22;;;;;;;8.30;5.68;;;18.50;60.30;;;;;;4950909;23;20426;-62
2022/06/25 08:07:24;;;;;;;11.18;5.60;;;18.50;60.20;;;;;;4993822;23;20034;-62
2022/06/25 08:09:27;;;;;;;5.80;4.95;;;18.50;60.20;;;;;;4989749;23;20030;-63
2022/06/25 08:11:29;;;;;;;6.93;5.00;;;18.50;60.20;;;;;;4994329;23;20057;-66
2022/06/25 08:13:32;;;;;;;7.15;4.97;;;18.50;60.50;;;;;;4990994;23;20667;-66
2022/06/25 08:15:34;;;;;;;6.70;5.53;;;18.50;60.40;;;;;;4989360;23;20408;-65
2022/06/25 08:17:37;;;;;;;8.98;5.40;;;18.50;60.50;;;;;;4991603;23;20436;-66
2022/06/25 08:19:39;;;;;;;6.05;4.43;;;18.50;60.50;;;;;;4967561;23;20792;-66
2022/06/25 08:21:41;;;;;;;7.03;4.72;;;18.50;60.40;;;;;;4985700;23;20549;-66
2022/06/25 08:23:44;;;;;;;5.95;4.70;;;18.50;60.50;;;;;;4992265;23;20045;-66
2022/06/25 08:25:46;;;;;;;8.60;4.82;;;18.50;60.40;;;;;;4966750;23;20134;-66
2022/06/25 08:27:50;;;;;;;6.15;4.47;;;18.50;60.40;;;;;;4992419;23;20030;-66
2022/06/25 08:29:52;;;;;;;6.40;4.38;;;18.40;60.30;;;;;;4992342;23;20033;-66
2022/06/25 08:31:54;;;;;;;5.60;4.32;;;18.40;60.30;;;;;;4968625;23;20102;-66
2022/06/25 08:33:58;;;;;;;6.45;4.50;;;18.40;60.30;;;;;;4993929;23;20571;-65
2022/06/25 08:36:00;;;;;;;5.15;4.13;;;18.40;60.20;;;;;;4990298;23;20446;-65
2022/06/25 08:38:03;;;;;;;5.22;4.05;;;18.40;60.20;;;;;;4964112;23;20533;-65
2022/06/25 08:40:07;;;;;;;6.15;4.40;;;18.40;60.40;;;;;;4994686;23;20094;-65
2022/06/25 08:42:09;;;;;;;5.07;3.60;;;18.40;60.20;;;;;;4986979;23;20145;-66
2022/06/25 08:44:11;;;;;;;5.65;3.88;;;18.40;60.20;;;;;;4990291;23;20062;-65
2022/06/25 08:46:16;;;;;;;5.30;3.60;;;18.40;60.30;;;;;;4997321;23;20140;-68
2022/06/25 08:48:24;;;;;;;5.90;3.72;;;18.30;60.20;;;;;;4995968;23;20034;-65
2022/06/25 08:50:27;;;;;;;5.47;4.00;;;18.30;60.20;;;;;;4969186;23;20337;-65
2022/06/25 08:52:30;;;;;;;6.05;3.75;;;18.30;60.20;;;;;;4992033;23;20125;-66
2022/06/25 08:54:33;;;;;;;;;;;18.30;60.30;;;;;;4969245;23;20324;-66
2022/06/25 08:56:36;;;;;;;4.78;3.60;;;18.30;60.40;;;;;;4943401;23;19972;-66
2022/06/25 08:58:42;;;;;;;5.00;3.28;;;18.30;60.50;;;;;;4963451;23;20069;-66
2022/06/25 09:00:45;;;;;;;5.32;3.30;;;18.30;60.50;;;;;;4986857;23;20699;-66
2022/06/25 09:02:48;;;;;;;4.47;3.15;;;18.30;60.50;;;;;;4992856;23;20268;-66
2022/06/25 09:04:50;;;;;;;4.32;2.88;;;18.30;60.60;;;;;;4992411;23;20245;-65
2022/06/25 09:07:09;;;;;;;4.50;3.08;;;18.30;60.60;;;;;;4987431;23;20513;-66
2022/06/25 09:09:16;;;;;;;4.85;2.72;;;18.30;60.60;;;;;;4965820;23;20957;-66
2022/06/25 09:11:18;;;;;;;3.95;2.70;;;18.20;60.50;;;;;;4961494;23;20026;-66
2022/06/25 09:13:25;;;;;;;5.07;2.88;;;18.20;60.50;;;;;;4989709;23;20030;-65
2022/06/25 09:15:34;;;;;;;4.22;2.80;;;18.20;60.50;;;;;;4992704;23;20022;-65
2022/06/25 09:17:46;;;;;;;5.03;2.92;;;18.20;60.40;;;;;;4991131;23;20089;-66
2022/06/25 09:19:51;;;;;;;4.75;2.78;;;18.20;60.40;;;;;;4965687;23;20034;-66
2022/06/25 09:21:53;;;;;;;3.65;2.40;;;18.20;60.40;;;;;;4964192;23;20049;-66
2022/06/25 09:24:00;;;;;;;3.25;2.45;;;18.20;60.30;;;;;;4964740;23;20705;-66
2022/06/25 09:26:12;;;;;;;3.30;2.42;;;18.20;60.30;;;;;;4960820;23;20443;-66
2022/06/25 09:28:33;;;;;;;3.88;2.67;;;18.20;60.20;;;;;;4964130;23;20035;-66
2022/06/25 09:30:35;;;;;;;3.65;2.53;;;18.20;60.10;;;;;;4965586;23;20026;-66
2022/06/25 09:32:51;;;;;;;3.15;2.40;;;18.10;60.10;;;;;;4964551;23;20033;-64
2022/06/25 09:34:53;;;;;;;3.40;2.60;;;18.10;60.00;;;;;;4939458;23;20103;-65
2022/06/25 09:36:55;;;;;;;3.10;2.40;;;18.20;60.20;;;;;;4997266;23;20093;-63
2022/06/25 09:38:58;;;;;;;4.30;2.65;;;18.10;60.40;;;;;;4970083;23;20041;-65
2022/06/25 09:41:01;;;;;;;4.30;2.38;;;18.30;60.70;;;;;;4992530;23;20041;-73
2022/06/25 09:43:14;;;;;;;2.75;2.05;;;18.80;59.90;;;;;;4991174;23;20034;-74
2022/06/25 09:45:17;;;;;;;5.00;1.90;;;19.40;58.60;;;;;;4991136;23;20568;-68
2022/06/25 09:47:19;;;;;;;3.72;2.10;;;20.10;57.30;;;;;;4993739;23;20034;-72
2022/06/25 09:49:26;;;;;;;3.70;1.90;;;20.60;56.00;;;;;;4993890;23;20145;-69
2022/06/25 09:51:29;;;;;;;4.55;1.95;;;21.10;54.90;;;;;;4994899;23;20022;-68
2022/06/25 09:53:32;;;;;;;4.18;2.00;;;21.60;54.20;;;;;;4968100;23;20547;-69
2022/06/25 09:55:37;;;;;;;3.88;2.17;;;22.00;53.40;;;;;;4971885;23;20027;-62
2022/06/25 09:57:39;;;;;;;2.80;1.70;;;22.40;52.90;;;;;;4994274;23;20109;-63
2022/06/25 09:59:42;;;;;;;3.03;2.00;;;22.70;52.20;;;;;;4992859;23;20120;-66
2022/06/25 10:01:45;;;;;;;3.30;1.80;;;23.00;51.80;;;;;;4995050;23;20030;-65
2022/06/25 10:03:48;;;;;;;2.88;1.80;;;23.30;51.20;;;;;;4997281;23;20030;-61
2022/06/25 10:05:51;;;;;;;3.13;1.67;;;23.60;50.70;;;;;;4970017;23;20038;-66
2022/06/25 10:08:00;;;;;;;2.58;1.85;;;23.80;50.30;;;;;;4993201;23;20101;-66
2022/06/25 10:10:03;;;;;;;4.95;1.77;;;24.10;49.90;;;;;;4992409;23;20030;-66
2022/06/25 10:12:06;;;;;;;3.47;1.77;;;24.30;49.40;;;;;;4996321;23;20045;-67
2022/06/25 10:14:08;;;;;;;3.30;1.80;;;24.50;49.00;;;;;;4993102;23;20608;-72
2022/06/25 10:16:11;;;;;;;3.43;1.90;;;24.80;48.80;;;;;;4991570;23;20034;-74
2022/06/25 10:18:13;;;;;;;1.90;1.50;;;24.90;48.50;;;;;;4997389;23;20060;-72
2022/06/25 10:20:18;;;;;;;3.63;1.87;;;25.10;48.20;;;;;;4995100;23;20237;-73
2022/06/25 10:22:20;;;;;;;1.58;1.40;;;25.30;47.90;;;;;;4992688;23;20466;-73
2022/06/25 10:24:22;;;;;;;2.63;1.60;;;25.50;47.60;;;;;;4994452;23;20069;-73
2022/06/25 10:26:26;;;;;;;2.97;1.90;;;25.70;47.40;;;;;;4998622;23;20101;-72
2022/06/25 10:28:31;;;;;;;;;;;25.80;47.10;;;;;;4970032;23;20170;-72
2022/06/25 10:30:48;;;;;;;1.75;1.40;;;26.00;46.90;;;;;;4965021;23;19926;-65
2022/06/25 10:32:50;;;;;;;2.15;1.58;;;26.20;46.60;;;;;;4992159;23;20110;-67
2022/06/25 10:34:58;;;;;;;1.90;1.60;;;26.30;46.60;;;;;;4992498;23;20329;-67
2022/06/25 10:37:01;;;;;;;2.00;1.60;;;26.00;46.60;;;;;;4967882;23;20146;-67
2022/06/25 10:39:22;;;;;;;2.75;1.80;;;25.70;47.30;;;;;;4975348;23;20046;-66
2022/06/25 10:43:46;;;;;;;2.45;1.58;;;24.90;48.30;;;;;;4966996;23;20052;-73
2022/06/25 10:45:49;;;;;;;2.50;1.80;;;24.50;48.70;;;;;;4967486;23;20086;-72
2022/06/25 10:47:58;;;;;;;3.92;2.03;;;24.30;49.30;;;;;;4971358;23;20019;-69
2022/06/25 10:50:22;;;;;;;2.78;1.80;;;24.10;49.70;;;;;;4971825;23;20547;-72
2022/06/25 10:52:24;;;;;;;3.38;1.80;;;23.90;50.00;;;;;;4996265;23;20022;-68
2022/06/25 10:54:27;;;;;;;3.22;2.28;;;23.70;50.20;;;;;;4998999;23;20037;-69
2022/06/25 10:56:53;;;;;;;3.00;1.80;;;23.50;50.50;;;;;;4993199;23;20030;-71
2022/06/25 10:58:56;;;;;;;3.38;2.20;;;23.40;50.70;;;;;;4995583;23;20344;-66
2022/06/25 11:01:01;;;;;;;3.10;1.80;;;23.30;50.90;;;;;;4969595;23;20267;-67